sensor_id;sensor_type;location;lat;lon;timestamp;pressure;altitude;pressure_sealevel;temperature;humidity
78206;BME280;67480;48.920;12.880;2023-07-08T00:00:09;97400.00;;;20.26;39.20
78206;BME280;67480;48.920;12.880;2023-07-08T00:02:35;97399.69;;;20.31;39.37
78206;BME280;67480;48.920;12.880;2023-07-08T00:05:00;97385.59;;;20.29;39.43
78206;BME280;67480;48.920;12.880;2023-07-08T00:07:25;97388.06;;;20.11;40.01
78206;BME280;67480;48.920;12.880;2023-07-08T00:09:50;97392.53;;;20.23;39.52
78206;BME280;67480;48.920;12.880;2023-07-08T00:12:16;97382.38;;;20.23;39.79
78206;BME280;67480;48.920;12.880;2023-07-08T00:14:41;97381.66;;;20.26;39.58
78206;BME280;67480;48.920;12.880;2023-07-08T00:17:11;97379.72;;;20.27;39.26
78206;BME280;67480;48.920;12.880;2023-07-08T00:19:37;97381.59;;;20.23;39.55
78206;BME280;67480;48.920;12.880;2023-07-08T00:22:10;97379.28;;;20.25;39.44
78206;BME280;67480;48.920;12.880;2023-07-08T00:24:36;97378.56;;;20.28;39.69
78206;BME280;67480;48.920;12.880;2023-07-08T00:27:01;97386.06;;;20.34;39.90
78206;BME280;67480;48.920;12.880;2023-07-08T00:29:26;97379.78;;;20.30;39.79
78206;BME280;67480;48.920;12.880;2023-07-08T00:31:52;97368.34;;;20.25;39.69
78206;BME280;67480;48.920;12.880;2023-07-08T00:34:17;97373.03;;;20.24;40.29
78206;BME280;67480;48.920;12.880;2023-07-08T00:36:42;97367.63;;;20.28;39.86
78206;BME280;67480;48.920;12.880;2023-07-08T00:39:13;97367.66;;;20.31;39.75
78206;BME280;67480;48.920;12.880;2023-07-08T00:41:40;97363.09;;;20.12;40.65
78206;BME280;67480;48.920;12.880;2023-07-08T00:44:10;97360.16;;;20.25;40.38
78206;BME280;67480;48.920;12.880;2023-07-08T00:46:50;97362.84;;;20.21;39.72
78206;BME280;67480;48.920;12.880;2023-07-08T00:51:49;97364.53;;;20.29;40.14
78206;BME280;67480;48.920;12.880;2023-07-08T00:54:17;97368.31;;;20.21;40.36
78206;BME280;67480;48.920;12.880;2023-07-08T01:01:44;97365.56;;;20.21;40.51
78206;BME280;67480;48.920;12.880;2023-07-08T01:06:46;97374.81;;;20.13;40.77
78206;BME280;67480;48.920;12.880;2023-07-08T01:09:14;97379.59;;;20.19;40.54
78206;BME280;67480;48.920;12.880;2023-07-08T01:11:41;97374.88;;;20.16;40.44
78206;BME280;67480;48.920;12.880;2023-07-08T01:14:09;97364.78;;;20.20;40.31
78206;BME280;67480;48.920;12.880;2023-07-08T01:16:37;97371.41;;;20.19;40.46
78206;BME280;67480;48.920;12.880;2023-07-08T01:19:04;97372.41;;;20.08;40.78
78206;BME280;67480;48.920;12.880;2023-07-08T01:21:32;97362.75;;;20.14;40.53
78206;BME280;67480;48.920;12.880;2023-07-08T01:23:59;97365.47;;;20.14;40.65
78206;BME280;67480;48.920;12.880;2023-07-08T01:26:25;97362.44;;;20.19;40.42
78206;BME280;67480;48.920;12.880;2023-07-08T01:28:52;97371.81;;;20.22;39.71
78206;BME280;67480;48.920;12.880;2023-07-08T01:31:19;97366.25;;;20.14;40.66
78206;BME280;67480;48.920;12.880;2023-07-08T01:33:44;97358.84;;;20.15;40.38
78206;BME280;67480;48.920;12.880;2023-07-08T01:36:11;97368.94;;;20.11;40.41
78206;BME280;67480;48.920;12.880;2023-07-08T01:38:38;97357.97;;;20.07;40.54
78206;BME280;67480;48.920;12.880;2023-07-08T01:41:04;97362.94;;;20.01;40.64
78206;BME280;67480;48.920;12.880;2023-07-08T01:43:29;97355.59;;;20.06;40.66
78206;BME280;67480;48.920;12.880;2023-07-08T01:45:58;97352.78;;;20.02;40.87
78206;BME280;67480;48.920;12.880;2023-07-08T01:48:36;97348.44;;;19.97;40.35
78206;BME280;67480;48.920;12.880;2023-07-08T01:51:04;97344.94;;;20.00;40.60
78206;BME280;67480;48.920;12.880;2023-07-08T01:53:36;97349.22;;;19.98;40.46
78206;BME280;67480;48.920;12.880;2023-07-08T01:56:03;97346.50;;;19.98;40.23
78206;BME280;67480;48.920;12.880;2023-07-08T01:58:29;97341.50;;;20.04;39.73
78206;BME280;67480;48.920;12.880;2023-07-08T02:00:54;97340.72;;;20.03;39.44
78206;BME280;67480;48.920;12.880;2023-07-08T02:03:20;97341.06;;;20.01;39.13
78206;BME280;67480;48.920;12.880;2023-07-08T02:05:45;97344.66;;;20.06;39.44
78206;BME280;67480;48.920;12.880;2023-07-08T02:08:11;97337.66;;;20.08;38.85
78206;BME280;67480;48.920;12.880;2023-07-08T02:10:38;97336.94;;;20.11;38.13
78206;BME280;67480;48.920;12.880;2023-07-08T02:13:03;97329.16;;;20.13;37.83
78206;BME280;67480;48.920;12.880;2023-07-08T02:15:29;97333.50;;;20.18;37.58
78206;BME280;67480;48.920;12.880;2023-07-08T02:17:54;97334.38;;;20.22;37.51
78206;BME280;67480;48.920;12.880;2023-07-08T02:20:20;97332.25;;;20.12;37.78
78206;BME280;67480;48.920;12.880;2023-07-08T02:22:45;97334.88;;;20.05;37.75
78206;BME280;67480;48.920;12.880;2023-07-08T02:25:10;97335.44;;;19.91;38.60
78206;BME280;67480;48.920;12.880;2023-07-08T02:27:37;97340.66;;;19.99;37.17
78206;BME280;67480;48.920;12.880;2023-07-08T02:30:03;97336.75;;;20.00;37.87
78206;BME280;67480;48.920;12.880;2023-07-08T02:32:29;97343.75;;;19.98;38.03
78206;BME280;67480;48.920;12.880;2023-07-08T02:34:55;97343.41;;;19.99;37.59
78206;BME280;67480;48.920;12.880;2023-07-08T02:37:20;97353.03;;;19.93;38.29
78206;BME280;67480;48.920;12.880;2023-07-08T02:39:45;97346.53;;;19.78;38.86
78206;BME280;67480;48.920;12.880;2023-07-08T02:42:11;97345.25;;;19.72;38.98
78206;BME280;67480;48.920;12.880;2023-07-08T02:44:36;97345.75;;;19.78;38.79
78206;BME280;67480;48.920;12.880;2023-07-08T02:47:01;97343.81;;;19.78;38.88
78206;BME280;67480;48.920;12.880;2023-07-08T02:49:27;97344.13;;;19.73;39.03
78206;BME280;67480;48.920;12.880;2023-07-08T02:51:52;97340.47;;;19.65;39.18
78206;BME280;67480;48.920;12.880;2023-07-08T02:54:18;97341.19;;;19.62;38.94
78206;BME280;67480;48.920;12.880;2023-07-08T02:56:43;97343.00;;;19.55;38.64
78206;BME280;67480;48.920;12.880;2023-07-08T02:59:08;97348.56;;;19.58;38.36
78206;BME280;67480;48.920;12.880;2023-07-08T03:01:33;97348.06;;;19.53;38.16
78206;BME280;67480;48.920;12.880;2023-07-08T03:04:09;97358.56;;;19.51;38.69
78206;BME280;67480;48.920;12.880;2023-07-08T03:06:40;97346.91;;;19.54;38.71
78206;BME280;67480;48.920;12.880;2023-07-08T03:09:05;97354.13;;;19.42;39.06
78206;BME280;67480;48.920;12.880;2023-07-08T03:11:31;97358.00;;;19.41;38.52
78206;BME280;67480;48.920;12.880;2023-07-08T03:13:56;97352.72;;;19.29;39.35
78206;BME280;67480;48.920;12.880;2023-07-08T03:16:21;97348.47;;;19.32;39.45
78206;BME280;67480;48.920;12.880;2023-07-08T03:18:47;97342.63;;;19.33;38.76
78206;BME280;67480;48.920;12.880;2023-07-08T03:21:14;97348.88;;;19.34;38.60
78206;BME280;67480;48.920;12.880;2023-07-08T03:23:40;97344.44;;;19.25;38.58
78206;BME280;67480;48.920;12.880;2023-07-08T03:26:06;97347.16;;;19.25;38.65
78206;BME280;67480;48.920;12.880;2023-07-08T03:28:31;97349.19;;;19.28;38.43
78206;BME280;67480;48.920;12.880;2023-07-08T03:30:57;97335.47;;;19.25;39.31
78206;BME280;67480;48.920;12.880;2023-07-08T03:33:22;97340.44;;;19.19;39.54
78206;BME280;67480;48.920;12.880;2023-07-08T03:35:48;97346.84;;;19.07;39.51
78206;BME280;67480;48.920;12.880;2023-07-08T03:38:13;97347.34;;;19.13;39.09
78206;BME280;67480;48.920;12.880;2023-07-08T03:40:38;97336.06;;;19.15;38.92
78206;BME280;67480;48.920;12.880;2023-07-08T03:43:04;97343.53;;;19.18;39.23
78206;BME280;67480;48.920;12.880;2023-07-08T03:45:29;97351.00;;;19.21;39.29
78206;BME280;67480;48.920;12.880;2023-07-08T03:47:54;97350.72;;;19.26;39.00
78206;BME280;67480;48.920;12.880;2023-07-08T03:50:22;97356.81;;;19.19;39.01
78206;BME280;67480;48.920;12.880;2023-07-08T03:52:49;97345.47;;;19.17;39.27
78206;BME280;67480;48.920;12.880;2023-07-08T03:55:15;97348.84;;;19.10;38.95
78206;BME280;67480;48.920;12.880;2023-07-08T03:57:41;97342.81;;;19.21;38.71
78206;BME280;67480;48.920;12.880;2023-07-08T04:00:07;97343.66;;;19.25;38.76
78206;BME280;67480;48.920;12.880;2023-07-08T04:02:38;97342.16;;;19.27;38.87
78206;BME280;67480;48.920;12.880;2023-07-08T04:05:04;97343.59;;;19.21;38.96
78206;BME280;67480;48.920;12.880;2023-07-08T04:07:30;97342.94;;;19.28;38.86
78206;BME280;67480;48.920;12.880;2023-07-08T04:09:55;97346.59;;;19.36;38.89
78206;BME280;67480;48.920;12.880;2023-07-08T04:12:21;97347.78;;;19.38;38.64
78206;BME280;67480;48.920;12.880;2023-07-08T04:14:46;97336.22;;;19.45;38.92
78206;BME280;67480;48.920;12.880;2023-07-08T04:17:11;97341.97;;;19.40;38.62
78206;BME280;67480;48.920;12.880;2023-07-08T04:19:37;97347.78;;;19.38;38.82
78206;BME280;67480;48.920;12.880;2023-07-08T04:22:04;97345.50;;;19.40;39.10
78206;BME280;67480;48.920;12.880;2023-07-08T04:24:30;97335.06;;;19.46;38.92
78206;BME280;67480;48.920;12.880;2023-07-08T04:26:56;97351.81;;;19.44;38.98
78206;BME280;67480;48.920;12.880;2023-07-08T04:29:22;97340.16;;;19.47;39.06
78206;BME280;67480;48.920;12.880;2023-07-08T04:31:48;97335.19;;;19.53;39.41
78206;BME280;67480;48.920;12.880;2023-07-08T04:34:15;97337.13;;;19.53;39.68
78206;BME280;67480;48.920;12.880;2023-07-08T04:36:41;97333.63;;;19.52;40.09
78206;BME280;67480;48.920;12.880;2023-07-08T04:39:07;97336.03;;;19.57;39.33
78206;BME280;67480;48.920;12.880;2023-07-08T04:41:35;97337.78;;;19.69;39.10
78206;BME280;67480;48.920;12.880;2023-07-08T04:44:11;97343.13;;;19.81;38.01
78206;BME280;67480;48.920;12.880;2023-07-08T04:46:45;97344.84;;;19.93;37.98
78206;BME280;67480;48.920;12.880;2023-07-08T04:49:11;97337.03;;;19.92;37.31
78206;BME280;67480;48.920;12.880;2023-07-08T04:51:37;97335.63;;;20.01;37.18
78206;BME280;67480;48.920;12.880;2023-07-08T04:54:03;97340.06;;;20.13;37.21
78206;BME280;67480;48.920;12.880;2023-07-08T04:56:40;97343.72;;;20.21;37.44
78206;BME280;67480;48.920;12.880;2023-07-08T04:59:11;97346.50;;;20.25;37.46
78206;BME280;67480;48.920;12.880;2023-07-08T05:01:37;97341.88;;;20.29;36.68
78206;BME280;67480;48.920;12.880;2023-07-08T05:04:03;97346.28;;;20.37;36.76
78206;BME280;67480;48.920;12.880;2023-07-08T05:06:31;97340.44;;;20.38;36.89
78206;BME280;67480;48.920;12.880;2023-07-08T05:08:58;97342.50;;;20.45;35.93
78206;BME280;67480;48.920;12.880;2023-07-08T05:11:23;97344.44;;;20.45;36.86
78206;BME280;67480;48.920;12.880;2023-07-08T05:13:48;97338.19;;;20.44;37.21
78206;BME280;67480;48.920;12.880;2023-07-08T05:16:14;97340.59;;;20.49;37.07
78206;BME280;67480;48.920;12.880;2023-07-08T05:18:39;97340.69;;;20.56;36.56
78206;BME280;67480;48.920;12.880;2023-07-08T05:21:04;97330.97;;;20.59;36.64
78206;BME280;67480;48.920;12.880;2023-07-08T05:23:30;97344.78;;;20.70;36.10
78206;BME280;67480;48.920;12.880;2023-07-08T05:25:59;97348.00;;;20.76;35.83
78206;BME280;67480;48.920;12.880;2023-07-08T05:28:25;97353.59;;;20.86;35.40
78206;BME280;67480;48.920;12.880;2023-07-08T05:30:54;97347.41;;;20.93;35.48
78206;BME280;67480;48.920;12.880;2023-07-08T05:33:25;97354.53;;;21.01;35.33
78206;BME280;67480;48.920;12.880;2023-07-08T05:35:51;97355.03;;;21.07;34.24
78206;BME280;67480;48.920;12.880;2023-07-08T05:38:17;97357.06;;;21.17;34.47
78206;BME280;67480;48.920;12.880;2023-07-08T05:40:42;97353.25;;;21.25;35.61
78206;BME280;67480;48.920;12.880;2023-07-08T05:43:07;97351.03;;;21.35;36.33
78206;BME280;67480;48.920;12.880;2023-07-08T05:45:33;97354.59;;;21.39;35.04
78206;BME280;67480;48.920;12.880;2023-07-08T05:48:00;97357.41;;;21.46;35.57
78206;BME280;67480;48.920;12.880;2023-07-08T05:50:25;97355.91;;;21.52;35.18
78206;BME280;67480;48.920;12.880;2023-07-08T05:52:50;97355.19;;;21.59;34.63
78206;BME280;67480;48.920;12.880;2023-07-08T05:55:15;97354.88;;;21.68;35.20
78206;BME280;67480;48.920;12.880;2023-07-08T05:57:41;97351.00;;;21.72;34.49
78206;BME280;67480;48.920;12.880;2023-07-08T06:00:06;97348.31;;;21.79;35.52
78206;BME280;67480;48.920;12.880;2023-07-08T06:02:32;97348.00;;;21.88;35.02
78206;BME280;67480;48.920;12.880;2023-07-08T06:04:57;97349.22;;;21.94;33.87
78206;BME280;67480;48.920;12.880;2023-07-08T06:07:22;97355.94;;;22.04;35.30
78206;BME280;67480;48.920;12.880;2023-07-08T06:09:48;97355.25;;;22.11;36.02
78206;BME280;67480;48.920;12.880;2023-07-08T06:12:13;97356.84;;;22.15;36.09
78206;BME280;67480;48.920;12.880;2023-07-08T06:14:38;97347.47;;;22.20;36.15
78206;BME280;67480;48.920;12.880;2023-07-08T06:17:04;97344.38;;;22.25;36.21
78206;BME280;67480;48.920;12.880;2023-07-08T06:19:30;97353.41;;;22.29;35.27
78206;BME280;67480;48.920;12.880;2023-07-08T06:21:55;97351.09;;;22.35;36.01
78206;BME280;67480;48.920;12.880;2023-07-08T06:24:20;97358.56;;;22.42;35.69
78206;BME280;67480;48.920;12.880;2023-07-08T06:26:46;97361.00;;;22.50;35.82
78206;BME280;67480;48.920;12.880;2023-07-08T06:29:11;97364.53;;;22.54;35.09
78206;BME280;67480;48.920;12.880;2023-07-08T06:31:37;97370.06;;;22.62;34.60
78206;BME280;67480;48.920;12.880;2023-07-08T06:34:02;97366.97;;;22.67;33.54
78206;BME280;67480;48.920;12.880;2023-07-08T06:36:29;97359.13;;;22.72;34.64
78206;BME280;67480;48.920;12.880;2023-07-08T06:38:54;97360.75;;;22.77;34.49
78206;BME280;67480;48.920;12.880;2023-07-08T06:41:20;97352.56;;;22.84;34.83
78206;BME280;67480;48.920;12.880;2023-07-08T06:43:45;97360.84;;;22.95;34.71
78206;BME280;67480;48.920;12.880;2023-07-08T06:46:10;97360.84;;;22.99;33.85
78206;BME280;67480;48.920;12.880;2023-07-08T06:48:36;97368.72;;;23.04;33.25
78206;BME280;67480;48.920;12.880;2023-07-08T06:51:01;97370.31;;;23.12;31.57
78206;BME280;67480;48.920;12.880;2023-07-08T06:53:26;97374.66;;;23.20;32.32
78206;BME280;67480;48.920;12.880;2023-07-08T06:55:52;97371.94;;;23.27;32.99
78206;BME280;67480;48.920;12.880;2023-07-08T06:58:17;97372.34;;;23.33;31.67
78206;BME280;67480;48.920;12.880;2023-07-08T07:00:43;97372.81;;;23.50;31.33
78206;BME280;67480;48.920;12.880;2023-07-08T07:03:09;97367.69;;;23.55;29.19
78206;BME280;67480;48.920;12.880;2023-07-08T07:05:35;97368.09;;;23.68;30.48
78206;BME280;67480;48.920;12.880;2023-07-08T07:08:00;97352.41;;;23.76;29.51
78206;BME280;67480;48.920;12.880;2023-07-08T07:10:25;97352.81;;;23.89;29.92
78206;BME280;67480;48.920;12.880;2023-07-08T07:12:51;97361.44;;;24.01;29.37
78206;BME280;67480;48.920;12.880;2023-07-08T07:15:16;97362.63;;;24.08;28.88
78206;BME280;67480;48.920;12.880;2023-07-08T07:17:41;97355.56;;;24.21;27.74
78206;BME280;67480;48.920;12.880;2023-07-08T07:20:08;97363.41;;;24.37;27.94
78206;BME280;67480;48.920;12.880;2023-07-08T07:22:34;97358.69;;;24.41;28.75
78206;BME280;67480;48.920;12.880;2023-07-08T07:24:59;97359.03;;;24.50;28.68
78206;BME280;67480;48.920;12.880;2023-07-08T07:27:25;97361.78;;;24.61;28.03
78206;BME280;67480;48.920;12.880;2023-07-08T07:29:51;97359.06;;;24.54;26.99
78206;BME280;67480;48.920;12.880;2023-07-08T07:32:18;97353.56;;;24.54;27.39
78206;BME280;67480;48.920;12.880;2023-07-08T07:34:48;97350.75;;;24.65;27.89
78206;BME280;67480;48.920;12.880;2023-07-08T07:37:15;97353.09;;;24.70;27.97
78206;BME280;67480;48.920;12.880;2023-07-08T07:39:41;97357.81;;;24.84;32.54
78206;BME280;67480;48.920;12.880;2023-07-08T07:42:07;97364.09;;;24.81;27.80
78206;BME280;67480;48.920;12.880;2023-07-08T07:44:33;97360.91;;;24.93;32.42
78206;BME280;67480;48.920;12.880;2023-07-08T07:46:58;97366.09;;;24.62;31.70
78206;BME280;67480;48.920;12.880;2023-07-08T07:49:23;97362.44;;;24.98;31.31
78206;BME280;67480;48.920;12.880;2023-07-08T07:51:49;97350.25;;;24.99;32.07
78206;BME280;67480;48.920;12.880;2023-07-08T07:54:15;97349.13;;;24.96;32.77
78206;BME280;67480;48.920;12.880;2023-07-08T07:56:40;97352.19;;;25.13;30.79
78206;BME280;67480;48.920;12.880;2023-07-08T07:59:06;97346.16;;;25.28;30.90
78206;BME280;67480;48.920;12.880;2023-07-08T08:01:31;97351.22;;;25.41;32.30
78206;BME280;67480;48.920;12.880;2023-07-08T08:03:56;97348.03;;;25.50;31.86
78206;BME280;67480;48.920;12.880;2023-07-08T08:06:21;97353.47;;;25.64;31.58
78206;BME280;67480;48.920;12.880;2023-07-08T08:08:48;97366.09;;;25.61;32.00
78206;BME280;67480;48.920;12.880;2023-07-08T08:11:14;97364.00;;;25.76;32.14
78206;BME280;67480;48.920;12.880;2023-07-08T08:13:39;97371.69;;;25.99;31.64
78206;BME280;67480;48.920;12.880;2023-07-08T08:16:04;97378.56;;;26.29;30.09
78206;BME280;67480;48.920;12.880;2023-07-08T08:18:30;97366.38;;;26.27;30.06
78206;BME280;67480;48.920;12.880;2023-07-08T08:20:56;97370.25;;;26.33;30.21
78206;BME280;67480;48.920;12.880;2023-07-08T08:23:21;97370.97;;;26.41;30.99
78206;BME280;67480;48.920;12.880;2023-07-08T08:25:47;97372.44;;;26.49;31.08
78206;BME280;67480;48.920;12.880;2023-07-08T08:28:12;97376.41;;;26.48;30.11
78206;BME280;67480;48.920;12.880;2023-07-08T08:30:37;97388.06;;;27.01;31.03
78206;BME280;67480;48.920;12.880;2023-07-08T08:33:03;97382.72;;;26.86;31.03
78206;BME280;67480;48.920;12.880;2023-07-08T08:35:28;97390.22;;;26.86;30.78
78206;BME280;67480;48.920;12.880;2023-07-08T08:37:53;97394.75;;;27.03;30.38
78206;BME280;67480;48.920;12.880;2023-07-08T08:40:19;97400.78;;;27.25;30.24
78206;BME280;67480;48.920;12.880;2023-07-08T08:43:16;97397.81;;;27.43;29.61
78206;BME280;67480;48.920;12.880;2023-07-08T08:45:53;97403.59;;;27.22;29.94
78206;BME280;67480;48.920;12.880;2023-07-08T08:48:21;97401.16;;;27.58;29.55
78206;BME280;67480;48.920;12.880;2023-07-08T08:50:55;97409.00;;;27.63;29.37
78206;BME280;67480;48.920;12.880;2023-07-08T08:53:23;97406.41;;;27.80;29.82
78206;BME280;67480;48.920;12.880;2023-07-08T08:56:52;97408.41;;;27.76;29.29
78206;BME280;67480;48.920;12.880;2023-07-08T09:01:24;97388.22;;;28.30;27.94
78206;BME280;67480;48.920;12.880;2023-07-08T09:04:04;97402.28;;;28.15;27.94
78206;BME280;67480;48.920;12.880;2023-07-08T09:06:32;97398.56;;;28.02;27.05
78206;BME280;67480;48.920;12.880;2023-07-08T09:09:17;97404.69;;;28.13;26.15
78206;BME280;67480;48.920;12.880;2023-07-08T09:14:34;97395.84;;;28.69;26.60
78206;BME280;67480;48.920;12.880;2023-07-08T09:17:22;97402.59;;;28.68;26.85
78206;BME280;67480;48.920;12.880;2023-07-08T09:22:42;97390.06;;;29.77;24.47
78206;BME280;67480;48.920;12.880;2023-07-08T09:27:40;97384.88;;;30.74;24.48
78206;BME280;67480;48.920;12.880;2023-07-08T09:30:13;97383.56;;;30.79;24.42
78206;BME280;67480;48.920;12.880;2023-07-08T09:32:39;97387.28;;;30.43;23.60
78206;BME280;67480;48.920;12.880;2023-07-08T09:35:06;97389.72;;;29.91;23.91
78206;BME280;67480;48.920;12.880;2023-07-08T09:37:34;97399.91;;;30.31;23.21
78206;BME280;67480;48.920;12.880;2023-07-08T09:40:28;97386.06;;;31.02;24.13
78206;BME280;67480;48.920;12.880;2023-07-08T09:42:51;97387.16;;;30.63;22.68
78206;BME280;67480;48.920;12.880;2023-07-08T09:45:19;97389.47;;;30.35;23.04
78206;BME280;67480;48.920;12.880;2023-07-08T09:47:46;97391.56;;;30.14;22.99
78206;BME280;67480;48.920;12.880;2023-07-08T09:50:26;97404.66;;;29.97;24.37
78206;BME280;67480;48.920;12.880;2023-07-08T09:52:54;97406.81;;;30.39;24.11
78206;BME280;67480;48.920;12.880;2023-07-08T09:55:22;97405.91;;;30.75;22.80
78206;BME280;67480;48.920;12.880;2023-07-08T09:57:50;97410.00;;;31.00;22.23
78206;BME280;67480;48.920;12.880;2023-07-08T10:00:25;97413.53;;;30.71;22.39
78206;BME280;67480;48.920;12.880;2023-07-08T10:02:56;97409.25;;;30.83;23.22
78206;BME280;67480;48.920;12.880;2023-07-08T10:05:35;97407.06;;;30.45;24.29
78206;BME280;67480;48.920;12.880;2023-07-08T10:08:03;97409.84;;;30.12;23.90
78206;BME280;67480;48.920;12.880;2023-07-08T10:10:37;97404.56;;;30.01;25.00
78206;BME280;67480;48.920;12.880;2023-07-08T10:13:17;97403.50;;;29.95;24.31
78206;BME280;67480;48.920;12.880;2023-07-08T10:15:49;97411.13;;;30.56;23.97
78206;BME280;67480;48.920;12.880;2023-07-08T10:18:25;97405.59;;;30.86;23.69
78206;BME280;67480;48.920;12.880;2023-07-08T10:21:08;97411.88;;;31.32;23.23
78206;BME280;67480;48.920;12.880;2023-07-08T10:26:37;97406.09;;;30.68;23.55
78206;BME280;67480;48.920;12.880;2023-07-08T10:29:18;97412.19;;;30.92;24.26
78206;BME280;67480;48.920;12.880;2023-07-08T10:32:07;97404.34;;;31.71;23.30
78206;BME280;67480;48.920;12.880;2023-07-08T10:37:25;97411.88;;;31.03;23.68
78206;BME280;67480;48.920;12.880;2023-07-08T10:40:19;97408.78;;;31.14;24.25
78206;BME280;67480;48.920;12.880;2023-07-08T10:43:15;97405.78;;;31.08;23.16
78206;BME280;67480;48.920;12.880;2023-07-08T10:57:18;97421.00;;;32.23;21.84
78206;BME280;67480;48.920;12.880;2023-07-08T10:59:33;97432.97;;;33.15;22.59
78206;BME280;67480;48.920;12.880;2023-07-08T11:07:52;97429.75;;;34.11;21.22
78206;BME280;67480;48.920;12.880;2023-07-08T11:10:29;97434.66;;;34.56;20.05
78206;BME280;67480;48.920;12.880;2023-07-08T11:13:06;97433.00;;;33.37;20.96
78206;BME280;67480;48.920;12.880;2023-07-08T11:15:45;97425.41;;;32.46;22.29
78206;BME280;67480;48.920;12.880;2023-07-08T11:18:16;97430.81;;;32.01;22.20
78206;BME280;67480;48.920;12.880;2023-07-08T11:25:49;97426.88;;;34.42;20.35
78206;BME280;67480;48.920;12.880;2023-07-08T11:28:18;97421.31;;;34.51;20.23
78206;BME280;67480;48.920;12.880;2023-07-08T11:30:46;97433.63;;;35.61;18.99
78206;BME280;67480;48.920;12.880;2023-07-08T11:33:13;97431.13;;;35.73;18.40
78206;BME280;67480;48.920;12.880;2023-07-08T11:35:56;97424.41;;;35.00;19.09
78206;BME280;67480;48.920;12.880;2023-07-08T11:38:25;97420.06;;;35.17;19.40
78206;BME280;67480;48.920;12.880;2023-07-08T11:40:56;97417.09;;;34.37;19.67
78206;BME280;67480;48.920;12.880;2023-07-08T11:43:25;97420.88;;;34.03;20.00
78206;BME280;67480;48.920;12.880;2023-07-08T11:45:55;97425.00;;;34.39;19.62
78206;BME280;67480;48.920;12.880;2023-07-08T11:48:30;97429.25;;;34.99;19.07
78206;BME280;67480;48.920;12.880;2023-07-08T11:50:57;97426.66;;;36.57;18.22
78206;BME280;67480;48.920;12.880;2023-07-08T11:55:58;97422.06;;;36.99;18.88
78206;BME280;67480;48.920;12.880;2023-07-08T12:03:53;97425.97;;;38.67;16.34
78206;BME280;67480;48.920;12.880;2023-07-08T12:08:57;97415.34;;;37.35;17.72
78206;BME280;67480;48.920;12.880;2023-07-08T12:11:34;97404.34;;;35.29;18.33
78206;BME280;67480;48.920;12.880;2023-07-08T12:14:03;97407.19;;;34.73;19.20
78206;BME280;67480;48.920;12.880;2023-07-08T12:16:30;97398.47;;;34.90;19.36
78206;BME280;67480;48.920;12.880;2023-07-08T12:18:57;97399.66;;;35.35;18.92
78206;BME280;67480;48.920;12.880;2023-07-08T12:21:26;97400.94;;;35.16;19.14
78206;BME280;67480;48.920;12.880;2023-07-08T12:23:52;97397.66;;;35.08;19.03
78206;BME280;67480;48.920;12.880;2023-07-08T12:26:18;97396.69;;;35.39;17.99
78206;BME280;67480;48.920;12.880;2023-07-08T12:28:43;97397.88;;;36.47;17.36
78206;BME280;67480;48.920;12.880;2023-07-08T12:31:18;97399.84;;;37.70;16.51
78206;BME280;67480;48.920;12.880;2023-07-08T12:33:45;97402.91;;;39.10;15.62
78206;BME280;67480;48.920;12.880;2023-07-08T12:36:15;97401.94;;;39.45;15.12
78206;BME280;67480;48.920;12.880;2023-07-08T12:38:42;97391.97;;;39.50;14.70
78206;BME280;67480;48.920;12.880;2023-07-08T12:41:14;97397.53;;;39.38;14.64
78206;BME280;67480;48.920;12.880;2023-07-08T12:43:40;97394.03;;;39.49;15.52
78206;BME280;67480;48.920;12.880;2023-07-08T12:46:09;97392.38;;;38.38;16.01
78206;BME280;67480;48.920;12.880;2023-07-08T12:48:35;97393.25;;;38.29;15.65
78206;BME280;67480;48.920;12.880;2023-07-08T12:51:02;97390.16;;;38.06;16.15
78206;BME280;67480;48.920;12.880;2023-07-08T12:53:28;97391.69;;;38.89;15.53
78206;BME280;67480;48.920;12.880;2023-07-08T12:55:55;97380.75;;;38.30;16.20
78206;BME280;67480;48.920;12.880;2023-07-08T12:58:25;97387.78;;;38.19;16.03
78206;BME280;67480;48.920;12.880;2023-07-08T13:00:53;97385.16;;;37.45;16.72
78206;BME280;67480;48.920;12.880;2023-07-08T13:03:21;97385.97;;;36.13;18.03
78206;BME280;67480;48.920;12.880;2023-07-08T13:05:49;97380.94;;;35.93;19.26
78206;BME280;67480;48.920;12.880;2023-07-08T13:08:24;97378.31;;;35.47;18.33
78206;BME280;67480;48.920;12.880;2023-07-08T13:10:53;97376.25;;;35.57;18.10
78206;BME280;67480;48.920;12.880;2023-07-08T13:13:23;97372.78;;;36.29;18.23
78206;BME280;67480;48.920;12.880;2023-07-08T13:15:50;97369.44;;;36.64;18.15
78206;BME280;67480;48.920;12.880;2023-07-08T13:18:18;97368.63;;;36.24;17.71
78206;BME280;67480;48.920;12.880;2023-07-08T13:20:54;97365.13;;;36.14;18.17
78206;BME280;67480;48.920;12.880;2023-07-08T13:23:22;97377.66;;;35.00;19.31
78206;BME280;67480;48.920;12.880;2023-07-08T13:25:49;97360.69;;;34.02;20.00
78206;BME280;67480;48.920;12.880;2023-07-08T13:30:59;97373.03;;;32.53;20.93
78206;BME280;67480;48.920;12.880;2023-07-08T13:33:33;97370.78;;;32.26;20.99
78206;BME280;67480;48.920;12.880;2023-07-08T13:36:01;97366.44;;;32.12;21.07
78206;BME280;67480;48.920;12.880;2023-07-08T13:38:32;97365.28;;;32.35;21.39
78206;BME280;67480;48.920;12.880;2023-07-08T13:41:00;97358.09;;;32.25;21.11
78206;BME280;67480;48.920;12.880;2023-07-08T13:43:27;97361.88;;;32.18;21.83
78206;BME280;67480;48.920;12.880;2023-07-08T13:45:53;97364.41;;;32.38;21.94
78206;BME280;67480;48.920;12.880;2023-07-08T13:48:29;97367.13;;;32.51;21.11
78206;BME280;67480;48.920;12.880;2023-07-08T13:51:05;97364.44;;;32.13;21.58
78206;BME280;67480;48.920;12.880;2023-07-08T13:56:21;97357.44;;;32.08;22.98
78206;BME280;67480;48.920;12.880;2023-07-08T13:58:50;97365.19;;;32.26;22.71